createdAt,value
2023-09-28T00:00:35.674Z,70.17
2023-09-28T00:03:07.657Z,70.65
2023-09-28T00:05:35.856Z,70.99
2023-09-28T00:08:04.452Z,71.59
2023-09-28T00:10:32.905Z,71.83
2023-09-28T00:13:01.414Z,71.17
2023-09-28T00:15:29.135Z,71.37
2023-09-28T00:17:57.854Z,71.48
2023-09-28T00:20:26.474Z,72.21
2023-09-28T00:22:57.835Z,71.59
2023-09-28T00:25:25.428Z,71.50
2023-09-28T00:27:57.002Z,71.40
2023-09-28T00:30:27.965Z,71.46
2023-09-28T00:32:59.534Z,71.34
2023-09-28T00:35:32.631Z,71.19
2023-09-28T00:38:03.646Z,71.43
2023-09-28T00:40:33.493Z,71.82
2023-09-28T00:43:03.359Z,70.82
2023-09-28T00:45:31.130Z,69.88
2023-09-28T00:48:03.510Z,70.21
2023-09-28T00:50:33.011Z,70.28
2023-09-28T00:53:04.207Z,70.45
2023-09-28T00:55:32.180Z,70.96
2023-09-28T00:58:02.593Z,70.91
2023-09-28T01:00:33.679Z,71.36
2023-09-28T01:03:04.324Z,70.54
2023-09-28T01:05:42.081Z,71.22
2023-09-28T01:08:13.528Z,70.28
2023-09-28T01:10:44.847Z,69.63
2023-09-28T01:13:15.788Z,69.58
2023-09-28T01:15:45.229Z,70.59
2023-09-28T01:18:16.524Z,70.12
2023-09-28T01:20:52.816Z,70.35
2023-09-28T01:23:22.425Z,69.71
2023-09-28T01:25:51.163Z,70.07
2023-09-28T01:28:19.360Z,69.13
2023-09-28T01:30:46.934Z,69.62
2023-09-28T01:33:15.881Z,69.55
2023-09-28T01:35:43.209Z,69.89
2023-09-28T01:38:25.031Z,69.92
2023-09-28T01:40:53.595Z,69.95
2023-09-28T01:43:21.712Z,70.08
2023-09-28T01:45:51.244Z,69.70
2023-09-28T01:48:20.139Z,69.80
2023-09-28T01:50:47.297Z,69.71
2023-09-28T01:53:15.853Z,69.11
2023-09-28T01:55:45.268Z,69.65
2023-09-28T01:58:17.348Z,68.62
2023-09-28T02:00:47.745Z,69.17
2023-09-28T02:03:16.239Z,68.23
2023-09-28T02:05:47.545Z,68.76
2023-09-28T02:08:17.037Z,68.31
2023-09-28T02:10:47.238Z,67.78
2023-09-28T02:13:16.907Z,67.76
2023-09-28T02:15:45.744Z,68.12
2023-09-28T02:18:12.808Z,67.57
2023-09-28T02:20:41.115Z,68.23
2023-09-28T02:23:11.196Z,67.48
2023-09-28T02:25:39.371Z,67.90
2023-09-28T02:28:07.640Z,67.35
2023-09-28T02:30:39.684Z,66.72
2023-09-28T02:33:07.997Z,66.86
2023-09-28T02:35:37.512Z,66.54
2023-09-28T02:38:05.560Z,66.59
2023-09-28T02:40:34.360Z,66.98
2023-09-28T02:43:05.365Z,67.51
2023-09-28T02:45:33.505Z,67.40
2023-09-28T02:48:03.270Z,66.94
2023-09-28T02:50:32.283Z,66.47
2023-09-28T02:53:00.378Z,66.68
2023-09-28T02:55:28.900Z,66.65
2023-09-28T02:57:57.809Z,66.25
2023-09-28T03:00:26.080Z,66.53
2023-09-28T03:02:58.619Z,65.54
2023-09-28T03:05:30.621Z,66.38
2023-09-28T03:08:00.163Z,66.07
2023-09-28T03:10:30.971Z,65.78
2023-09-28T03:13:01.472Z,67.21
2023-09-28T03:15:31.110Z,66.67
2023-09-28T03:18:01.085Z,66.28
2023-09-28T03:20:33.133Z,66.13
2023-09-28T03:23:02.761Z,67.28
2023-09-28T03:25:30.416Z,67.14
2023-09-28T03:27:59.158Z,66.05
2023-09-28T03:30:32.409Z,65.71
2023-09-28T03:33:01.383Z,65.63
2023-09-28T03:35:29.784Z,65.56
2023-09-28T03:38:00.265Z,65.56
2023-09-28T03:40:35.332Z,66.63
2023-09-28T03:43:03.725Z,65.78
2023-09-28T03:45:33.044Z,66.71
2023-09-28T03:48:01.048Z,67.76
2023-09-28T03:50:31.417Z,66.65
2023-09-28T03:52:59.520Z,67.22
2023-09-28T03:55:28.454Z,67.08
2023-09-28T03:57:56.980Z,66.59
2023-09-28T04:00:24.972Z,67.73
2023-09-28T04:02:56.346Z,68.13
2023-09-28T04:05:25.152Z,68.33
2023-09-28T04:07:55.599Z,68.88
2023-09-28T04:10:24.961Z,68.53
2023-09-28T04:12:55.174Z,68.35
2023-09-28T04:15:25.161Z,68.53
2023-09-28T04:17:53.041Z,68.89
2023-09-28T04:20:21.947Z,69.40
2023-09-28T04:22:50.340Z,69.58
2023-09-28T04:25:22.827Z,69.78
2023-09-28T04:27:51.728Z,70.07
2023-09-28T04:30:22.672Z,69.80
2023-09-28T04:32:53.666Z,70.24
2023-09-28T04:35:22.491Z,70.37
2023-09-28T04:37:50.726Z,69.90
2023-09-28T04:40:26.322Z,70.10
2023-09-28T04:42:56.436Z,69.17
2023-09-28T04:45:25.476Z,68.68
2023-09-28T04:47:53.574Z,68.78
2023-09-28T04:50:23.230Z,68.97
2023-09-28T04:52:51.371Z,69.14
2023-09-28T04:55:21.810Z,69.95
2023-09-28T04:57:49.964Z,69.16
2023-09-28T05:00:19.361Z,69.25
2023-09-28T05:02:49.529Z,69.11
2023-09-28T05:05:18.170Z,69.09
2023-09-28T05:07:46.770Z,69.14
2023-09-28T05:10:14.954Z,69.11
2023-09-28T05:12:45.198Z,69.11
2023-09-28T05:15:15.355Z,69.04
2023-09-28T05:17:44.132Z,69.79
2023-09-28T05:20:13.857Z,69.83
2023-09-28T05:22:41.783Z,71.47
2023-09-28T05:25:11.107Z,70.88
2023-09-28T05:27:39.391Z,70.79
2023-09-28T05:30:11.588Z,70.63
2023-09-28T05:32:40.325Z,70.61
2023-09-28T05:35:09.178Z,71.73
2023-09-28T05:37:38.150Z,72.01
2023-09-28T05:40:07.276Z,72.01
2023-09-28T05:42:36.313Z,71.12
2023-09-28T05:45:05.759Z,71.68
2023-09-28T05:47:36.094Z,72.08
2023-09-28T05:50:06.013Z,71.27
2023-09-28T05:52:34.289Z,71.02
2023-09-28T05:55:02.846Z,72.60
2023-09-28T05:57:31.797Z,72.12
2023-09-28T05:59:59.821Z,71.42
2023-09-28T06:02:28.490Z,71.82
2023-09-28T06:04:58.959Z,72.23
2023-09-28T06:07:27.059Z,72.04
2023-09-28T06:09:55.600Z,72.98
2023-09-28T06:12:24.883Z,72.79
2023-09-28T06:14:53.648Z,73.97
2023-09-28T06:17:22.325Z,73.00
2023-09-28T06:19:57.870Z,73.75
2023-09-28T06:22:29.546Z,74.58
2023-09-28T06:24:57.822Z,74.22
2023-09-28T06:27:30.004Z,76.73
2023-09-28T06:29:58.796Z,75.61
2023-09-28T06:32:28.139Z,75.14
2023-09-28T06:34:57.434Z,74.38
2023-09-28T06:37:25.471Z,73.95
2023-09-28T06:39:55.710Z,74.95
2023-09-28T06:42:36.157Z,73.74
2023-09-28T06:45:06.123Z,75.24
2023-09-28T06:47:50.678Z,75.86
2023-09-28T06:50:24.431Z,74.93
2023-09-28T06:52:53.033Z,73.10
2023-09-28T06:55:25.517Z,75.37
2023-09-28T06:57:53.706Z,72.29
2023-09-28T07:00:22.610Z,72.14
2023-09-28T07:02:51.222Z,72.50
2023-09-28T07:05:19.932Z,72.67
2023-09-28T07:07:49.626Z,72.23
2023-09-28T07:10:19.114Z,72.45
2023-09-28T07:12:49.617Z,73.54
2023-09-28T07:15:18.271Z,72.03
2023-09-28T07:17:46.625Z,71.74
2023-09-28T07:20:16.919Z,73.54
2023-09-28T07:22:45.095Z,71.76
2023-09-28T07:25:14.211Z,71.39
2023-09-28T07:27:44.421Z,71.29
2023-09-28T07:30:15.770Z,71.62
2023-09-28T07:32:44.630Z,71.38
2023-09-28T07:35:12.924Z,73.60
2023-09-28T07:37:43.019Z,72.86
2023-09-28T07:40:13.645Z,72.09
2023-09-28T07:42:44.579Z,72.92
2023-09-28T07:45:15.426Z,71.90
2023-09-28T07:47:44.223Z,72.05
2023-09-28T07:50:16.787Z,71.88
2023-09-28T07:52:45.885Z,71.94
2023-09-28T07:55:15.851Z,71.88
2023-09-28T07:57:57.518Z,72.36
2023-09-28T08:00:29.955Z,72.33
2023-09-28T08:02:58.987Z,71.95
2023-09-28T08:05:27.837Z,72.01
2023-09-28T08:08:08.639Z,71.99
2023-09-28T08:10:44.061Z,71.98
2023-09-28T08:13:14.482Z,72.12
2023-09-28T08:15:46.024Z,71.90
2023-09-28T08:18:15.573Z,71.96
2023-09-28T08:20:55.419Z,72.60
2023-09-28T08:23:33.370Z,72.99
2023-09-28T08:26:01.507Z,73.42
2023-09-28T08:28:29.996Z,72.99
2023-09-28T08:31:05.528Z,75.51
2023-09-28T08:33:34.730Z,71.57
2023-09-28T08:36:02.708Z,71.64
2023-09-28T08:38:31.873Z,70.81
2023-09-28T08:41:02.068Z,70.48
2023-09-28T08:43:35.519Z,70.99
2023-09-28T08:46:08.356Z,71.80
2023-09-28T08:48:42.212Z,72.86
2023-09-28T08:51:12.873Z,71.90
2023-09-28T08:53:44.979Z,71.22
2023-09-28T08:56:14.296Z,70.92
2023-09-28T08:58:44.727Z,72.52
2023-09-28T09:01:14.968Z,72.37
2023-09-28T09:03:44.046Z,72.98
2023-09-28T09:06:12.726Z,72.58
2023-09-28T09:08:46.322Z,73.25
2023-09-28T09:11:17.660Z,72.96
2023-09-28T09:13:55.828Z,72.68
2023-09-28T09:16:28.665Z,72.70
2023-09-28T09:18:58.065Z,73.23
2023-09-28T09:21:27.603Z,72.92
2023-09-28T09:24:06.530Z,72.92
2023-09-28T09:26:42.175Z,73.18
2023-09-28T09:29:10.753Z,74.53
2023-09-28T09:31:41.995Z,73.43
2023-09-28T09:34:14.012Z,73.31
2023-09-28T09:36:43.599Z,73.82
2023-09-28T09:39:23.527Z,72.60
2023-09-28T09:41:53.164Z,72.75
2023-09-28T09:44:22.173Z,72.58
2023-09-28T09:46:54.530Z,71.89
2023-09-28T09:49:25.481Z,72.26
2023-09-28T09:51:55.729Z,71.01
2023-09-28T09:54:23.801Z,72.01
2023-09-28T09:56:54.714Z,70.47
2023-09-28T09:59:24.322Z,70.45
2023-09-28T10:01:55.443Z,69.75
2023-09-28T10:04:27.611Z,69.39
2023-09-28T10:07:02.036Z,69.67
2023-09-28T10:09:31.053Z,69.02
2023-09-28T10:12:01.245Z,69.03
2023-09-28T10:14:29.353Z,68.79
2023-09-28T10:16:59.965Z,68.24
2023-09-28T10:19:30.565Z,68.27
2023-09-28T10:21:58.717Z,67.86
2023-09-28T10:24:32.434Z,67.13
2023-09-28T10:27:09.517Z,67.58
2023-09-28T10:29:38.620Z,67.64
2023-09-28T10:32:15.323Z,67.80
2023-09-28T10:34:47.606Z,68.40
2023-09-28T10:37:23.294Z,68.18
2023-09-28T10:39:59.124Z,68.09
2023-09-28T10:42:28.209Z,67.89
2023-09-28T10:44:57.894Z,68.08
2023-09-28T10:47:28.909Z,68.15
2023-09-28T10:50:00.626Z,68.51
2023-09-28T10:52:31.446Z,69.28
2023-09-28T10:54:59.752Z,68.31
2023-09-28T10:57:32.978Z,68.86
2023-09-28T11:00:01.978Z,68.97
2023-09-28T11:02:38.666Z,68.25
2023-09-28T11:05:09.799Z,68.73
2023-09-28T11:07:41.957Z,69.25
2023-09-28T11:10:10.700Z,70.53
2023-09-28T11:12:39.746Z,68.82
2023-09-28T11:15:11.361Z,67.55
2023-09-28T11:17:41.616Z,67.40
2023-09-28T11:20:12.873Z,66.95
2023-09-28T11:22:41.751Z,66.69
2023-09-28T11:25:13.532Z,66.10
2023-09-28T11:27:44.242Z,66.97
2023-09-28T11:30:20.854Z,67.65
2023-09-28T11:32:53.481Z,67.26
2023-09-28T11:35:25.995Z,66.09
2023-09-28T11:37:55.141Z,65.17
2023-09-28T11:40:23.148Z,68.05
2023-09-28T11:42:54.723Z,66.20
2023-09-28T11:45:28.908Z,65.77
2023-09-28T11:47:59.030Z,64.00
2023-09-28T11:50:29.907Z,64.75
2023-09-28T11:52:58.965Z,64.45
2023-09-28T11:55:28.204Z,64.26
2023-09-28T11:57:58.956Z,62.98
2023-09-28T12:00:27.540Z,65.25
2023-09-28T12:02:55.711Z,65.00
2023-09-28T12:05:26.404Z,65.79
2023-09-28T12:07:54.779Z,65.58
2023-09-28T12:10:23.839Z,65.68
2023-09-28T12:12:52.822Z,66.73
2023-09-28T12:15:22.062Z,66.38
2023-09-28T12:17:50.917Z,64.87
2023-09-28T12:20:19.721Z,65.83
2023-09-28T12:22:51.385Z,65.11
2023-09-28T12:25:20.430Z,63.73
2023-09-28T12:27:48.621Z,64.25
2023-09-28T12:30:24.074Z,64.57
2023-09-28T12:32:54.455Z,63.97
2023-09-28T12:35:23.906Z,63.15
2023-09-28T12:37:54.376Z,61.81
2023-09-28T12:40:22.678Z,63.50
2023-09-28T12:42:51.086Z,60.99
2023-09-28T12:45:20.181Z,59.77
2023-09-28T12:47:49.474Z,57.94
2023-09-28T12:50:18.653Z,58.14
2023-09-28T12:52:47.002Z,56.00
2023-09-28T12:55:16.916Z,56.16
2023-09-28T12:57:45.753Z,55.98
2023-09-28T13:00:15.817Z,57.05
2023-09-28T13:02:45.458Z,55.72
2023-09-28T13:05:15.731Z,56.36
2023-09-28T13:07:45.211Z,52.58
2023-09-28T13:10:22.536Z,52.46
2023-09-28T13:12:54.783Z,52.18
2023-09-28T13:15:25.680Z,53.95
2023-09-28T13:17:54.995Z,54.45
2023-09-28T13:20:28.409Z,54.07
2023-09-28T13:22:58.332Z,52.55
2023-09-28T13:25:27.808Z,51.86
2023-09-28T13:27:57.647Z,52.06
2023-09-28T13:30:25.815Z,51.58
2023-09-28T13:32:54.766Z,51.93
2023-09-28T13:35:23.706Z,49.46
2023-09-28T13:37:51.931Z,50.74
2023-09-28T13:40:24.180Z,51.85
2023-09-28T13:42:54.768Z,49.12
2023-09-28T13:45:25.420Z,50.26
2023-09-28T13:47:53.677Z,50.60
2023-09-28T13:50:23.120Z,49.29
2023-09-28T13:52:51.890Z,53.92
2023-09-28T13:55:21.438Z,53.70
2023-09-28T13:57:50.224Z,56.55
2023-09-28T14:00:29.503Z,57.28
2023-09-28T14:03:00.800Z,54.23
2023-09-28T14:05:29.910Z,52.43
2023-09-28T14:07:58.753Z,52.02
2023-09-28T14:10:27.789Z,51.93
2023-09-28T14:12:56.451Z,52.29
2023-09-28T14:15:25.225Z,54.84
2023-09-28T14:17:55.119Z,54.13
2023-09-28T14:20:25.527Z,54.75
2023-09-28T14:22:54.573Z,53.78
2023-09-28T14:25:23.005Z,53.37
2023-09-28T14:27:51.412Z,50.68
2023-09-28T14:30:20.007Z,50.34
2023-09-28T14:32:48.497Z,52.25
2023-09-28T14:35:18.432Z,55.06
2023-09-28T14:37:47.933Z,54.65
2023-09-28T14:40:17.583Z,54.79
2023-09-28T14:42:47.026Z,57.06
2023-09-28T14:45:15.238Z,56.94
2023-09-28T14:47:43.745Z,56.23
2023-09-28T14:50:17.823Z,56.46
2023-09-28T14:52:48.640Z,57.21
2023-09-28T14:55:17.118Z,56.58
2023-09-28T14:57:45.400Z,56.89
2023-09-28T15:00:14.918Z,56.96
2023-09-28T15:02:44.469Z,58.01
2023-09-28T15:05:13.698Z,57.52
2023-09-28T15:07:42.830Z,56.62
2023-09-28T15:10:13.564Z,57.42
2023-09-28T15:12:42.613Z,58.87
2023-09-28T15:15:11.229Z,58.67
2023-09-28T15:17:39.718Z,56.95
2023-09-28T15:20:11.363Z,58.29
2023-09-28T15:22:39.861Z,59.47
2023-09-28T15:25:10.090Z,60.90
2023-09-28T15:27:43.034Z,61.56
2023-09-28T15:30:13.557Z,61.85
2023-09-28T15:32:42.418Z,63.08
2023-09-28T15:35:12.512Z,63.32
2023-09-28T15:37:41.714Z,64.12
2023-09-28T15:40:10.415Z,64.53
2023-09-28T15:42:40.288Z,64.73
2023-09-28T15:45:10.737Z,65.46
2023-09-28T15:47:40.792Z,66.13
2023-09-28T15:50:10.378Z,66.73
2023-09-28T15:52:39.061Z,66.65
2023-09-28T15:55:07.934Z,65.69
2023-09-28T15:57:36.519Z,65.79
2023-09-28T16:00:11.666Z,65.88
2023-09-28T16:02:48.871Z,66.41
2023-09-28T16:05:17.202Z,65.74
2023-09-28T16:07:47.395Z,67.18
2023-09-28T16:10:16.097Z,67.75
2023-09-28T16:12:45.746Z,68.10
2023-09-28T16:15:16.738Z,67.91
2023-09-28T16:17:44.931Z,67.81
2023-09-28T16:20:13.220Z,69.17
2023-09-28T16:22:42.176Z,69.40
2023-09-28T16:25:10.986Z,70.17
2023-09-28T16:27:39.708Z,69.74
2023-09-28T16:30:09.630Z,70.22
2023-09-28T16:32:39.268Z,71.14
2023-09-28T16:35:09.225Z,71.23
2023-09-28T16:37:37.387Z,71.33
2023-09-28T16:40:05.953Z,72.37
2023-09-28T16:42:34.665Z,72.55
2023-09-28T16:45:03.195Z,72.25
2023-09-28T16:47:31.229Z,72.92
2023-09-28T16:50:01.455Z,73.31
2023-09-28T16:52:30.032Z,73.44
2023-09-28T16:54:58.663Z,73.91
2023-09-28T16:57:26.925Z,75.16
2023-09-28T16:59:55.204Z,75.45
2023-09-28T17:02:24.805Z,75.40
2023-09-28T17:04:52.988Z,76.53
2023-09-28T17:07:22.950Z,77.73
2023-09-28T17:09:52.077Z,78.64
2023-09-28T17:12:29.737Z,79.05
2023-09-28T17:15:07.568Z,79.04
2023-09-28T17:17:35.699Z,80.37
2023-09-28T17:20:03.836Z,80.99
2023-09-28T17:22:34.097Z,82.79
2023-09-28T17:25:02.339Z,84.44
2023-09-28T17:27:30.650Z,85.32
2023-09-28T17:29:58.860Z,86.47
2023-09-28T17:32:27.169Z,87.01
2023-09-28T17:34:56.282Z,87.67
2023-09-28T17:37:24.471Z,88.99
2023-09-28T17:39:54.517Z,89.56
2023-09-28T17:42:26.209Z,89.48
2023-09-28T17:44:55.257Z,90.21
2023-09-28T17:47:24.143Z,90.32
2023-09-28T17:49:53.889Z,91.08
2023-09-28T17:52:23.077Z,91.61
2023-09-28T17:54:52.281Z,93.17
2023-09-28T17:57:24.671Z,93.63
2023-09-28T17:59:53.479Z,93.70
2023-09-28T18:02:22.954Z,93.59
2023-09-28T18:04:51.142Z,94.20
2023-09-28T18:07:19.720Z,93.78
2023-09-28T18:09:47.642Z,94.82
2023-09-28T18:12:15.751Z,94.47
2023-09-28T18:14:45.506Z,94.53
2023-09-28T18:17:14.360Z,96.08
2023-09-28T18:19:42.382Z,96.91
2023-09-28T18:22:10.818Z,96.94
2023-09-28T18:24:39.560Z,96.19
2023-09-28T18:27:08.047Z,95.34
2023-09-28T18:29:36.036Z,94.89
2023-09-28T18:32:06.701Z,95.21
2023-09-28T18:34:36.434Z,95.46
2023-09-28T18:37:05.034Z,96.03
2023-09-28T18:39:34.058Z,96.35
2023-09-28T18:42:03.305Z,97.20
2023-09-28T18:44:31.630Z,97.67
2023-09-28T18:47:00.246Z,97.77
2023-09-28T18:49:29.983Z,97.56
2023-09-28T18:51:57.959Z,98.33
2023-09-28T18:54:26.987Z,98.79
2023-09-28T18:56:55.736Z,99.02
2023-09-28T18:59:24.624Z,99.16
2023-09-28T19:01:55.097Z,99.56
2023-09-28T19:04:23.563Z,99.63
2023-09-28T19:06:53.231Z,99.63
2023-09-28T19:09:22.969Z,99.70
2023-09-28T19:11:51.017Z,99.08
2023-09-28T19:14:19.745Z,99.32
2023-09-28T19:16:49.400Z,99.22
2023-09-28T19:19:19.358Z,98.94
2023-09-28T19:21:47.638Z,99.06
2023-09-28T19:24:17.276Z,99.29
2023-09-28T19:26:45.417Z,99.12
2023-09-28T19:29:14.535Z,98.46
2023-09-28T19:31:42.886Z,98.80
2023-09-28T19:34:11.836Z,98.79
2023-09-28T19:36:40.326Z,99.04
2023-09-28T19:39:09.029Z,99.00
2023-09-28T19:41:38.937Z,99.80
2023-09-28T19:44:07.928Z,98.98
2023-09-28T19:46:39.016Z,99.01
2023-09-28T19:49:08.194Z,98.94
2023-09-28T19:51:39.341Z,99.07
2023-09-28T19:54:10.593Z,99.37
2023-09-28T19:56:40.042Z,99.24
2023-09-28T19:59:08.207Z,99.30
2023-09-28T20:01:36.893Z,99.95
2023-09-28T20:04:05.868Z,100.00
2023-09-28T20:06:34.475Z,100.00
2023-09-28T20:09:04.027Z,100.00
2023-09-28T20:11:32.148Z,100.00
2023-09-28T20:14:01.614Z,100.00
2023-09-28T20:16:30.695Z,100.00
2023-09-28T20:18:58.695Z,100.00
2023-09-28T20:21:27.148Z,100.00
2023-09-28T20:23:55.267Z,100.00
2023-09-28T20:26:23.514Z,100.00
2023-09-28T20:28:51.974Z,99.77
2023-09-28T20:31:21.405Z,98.93
2023-09-28T20:33:49.387Z,99.53
2023-09-28T20:36:20.381Z,99.31
2023-09-28T20:38:48.568Z,97.72
2023-09-28T20:41:16.627Z,97.57
2023-09-28T20:43:45.607Z,98.26
2023-09-28T20:46:17.556Z,98.18
2023-09-28T20:48:47.556Z,98.24
2023-09-28T20:51:16.323Z,97.55
2023-09-28T20:53:44.830Z,97.37
2023-09-28T20:56:17.645Z,97.03
2023-09-28T20:58:45.720Z,96.06
2023-09-28T21:01:14.402Z,95.52
2023-09-28T21:03:42.890Z,96.04
2023-09-28T21:06:12.726Z,95.30
2023-09-28T21:08:41.836Z,95.88
2023-09-28T21:11:18.532Z,95.52
2023-09-28T21:13:47.128Z,95.31
2023-09-28T21:16:16.613Z,95.07
2023-09-28T21:18:45.787Z,96.06
2023-09-28T21:21:18.614Z,96.28
2023-09-28T21:23:47.885Z,96.16
2023-09-28T21:26:16.818Z,96.93
2023-09-28T21:28:47.471Z,97.84
2023-09-28T21:31:20.289Z,98.30
2023-09-28T21:33:50.073Z,98.93
2023-09-28T21:36:19.852Z,99.53
2023-09-28T21:38:48.303Z,99.15
2023-09-28T21:41:17.512Z,100.00
2023-09-28T21:43:46.582Z,100.00
2023-09-28T21:46:22.464Z,100.00
2023-09-28T21:48:51.737Z,100.00
2023-09-28T21:51:22.971Z,100.00
2023-09-28T21:53:51.744Z,100.00
2023-09-28T21:56:20.386Z,100.00
2023-09-28T21:58:49.951Z,100.00
2023-09-28T22:01:19.212Z,100.00
2023-09-28T22:03:48.175Z,100.00
2023-09-28T22:06:17.333Z,100.00
2023-09-28T22:08:47.824Z,100.00
2023-09-28T22:11:16.858Z,100.00
2023-09-28T22:14:13.355Z,100.00
2023-09-28T22:16:46.714Z,100.00
2023-09-28T22:19:18.678Z,100.00
2023-09-28T22:21:47.388Z,100.00
2023-09-28T22:24:16.951Z,100.00
2023-09-28T22:26:52.032Z,100.00
2023-09-28T22:29:20.691Z,100.00
2023-09-28T22:31:49.409Z,100.00
2023-09-28T22:34:18.038Z,100.00
2023-09-28T22:37:48.640Z,100.00
2023-09-28T22:40:28.423Z,100.00
2023-09-28T22:42:58.953Z,100.00
2023-09-28T22:45:27.892Z,100.00
2023-09-28T22:48:23.567Z,100.00
2023-09-28T22:50:51.852Z,100.00
2023-09-28T22:53:20.076Z,100.00
2023-09-28T22:55:50.887Z,100.00
2023-09-28T22:58:18.988Z,100.00
2023-09-28T23:00:47.561Z,100.00
2023-09-28T23:03:16.006Z,100.00
2023-09-28T23:05:44.206Z,100.00
2023-09-28T23:08:13.318Z,100.00
2023-09-28T23:10:41.465Z,100.00
2023-09-28T23:13:12.668Z,100.00
2023-09-28T23:15:41.869Z,100.00
2023-09-28T23:18:10.779Z,100.00
2023-09-28T23:20:40.292Z,100.00
2023-09-28T23:23:09.002Z,100.00
2023-09-28T23:25:38.560Z,100.00
2023-09-28T23:28:10.362Z,100.00
2023-09-28T23:30:44.357Z,100.00
2023-09-28T23:33:15.910Z,100.00
2023-09-28T23:35:45.837Z,100.00
2023-09-28T23:38:15.669Z,100.00
2023-09-28T23:40:44.370Z,100.00
2023-09-28T23:43:15.652Z,100.00
2023-09-28T23:45:45.839Z,99.50
2023-09-28T23:48:15.952Z,98.61
2023-09-28T23:50:44.791Z,97.52
2023-09-28T23:53:13.465Z,97.38
2023-09-28T23:55:42.645Z,96.52
2023-09-28T23:58:11.522Z,96.64
